sensor_id;sensor_type;location;lat;lon;timestamp;P1;durP1;ratioP1;P2;durP2;ratioP2
55316;SDS011;41178;48.956;8.130;2022-11-21T00:04:42;5.73;;;2.63;;
55316;SDS011;41178;48.956;8.130;2022-11-21T00:09:44;2.70;;;2.40;;
55316;SDS011;41178;48.956;8.130;2022-11-21T00:14:46;2.83;;;2.60;;
55316;SDS011;41178;48.956;8.130;2022-11-21T00:19:47;4.73;;;2.80;;
55316;SDS011;41178;48.956;8.130;2022-11-21T00:24:49;4.37;;;2.77;;
55316;SDS011;41178;48.956;8.130;2022-11-21T00:29:54;4.77;;;3.03;;
55316;SDS011;41178;48.956;8.130;2022-11-21T00:34:56;6.33;;;3.10;;
55316;SDS011;41178;48.956;8.130;2022-11-21T00:39:57;3.77;;;3.00;;
55316;SDS011;41178;48.956;8.130;2022-11-21T00:44:59;3.43;;;2.97;;
55316;SDS011;41178;48.956;8.130;2022-11-21T00:50:01;2.83;;;2.63;;
55316;SDS011;41178;48.956;8.130;2022-11-21T00:55:02;3.77;;;2.50;;
55316;SDS011;41178;48.956;8.130;2022-11-21T01:00:04;3.10;;;2.87;;
55316;SDS011;41178;48.956;8.130;2022-11-21T01:05:06;2.80;;;2.37;;
55316;SDS011;41178;48.956;8.130;2022-11-21T01:10:08;4.30;;;3.10;;
55316;SDS011;41178;48.956;8.130;2022-11-21T01:15:10;5.23;;;2.70;;
55316;SDS011;41178;48.956;8.130;2022-11-21T01:20:12;6.67;;;3.27;;
55316;SDS011;41178;48.956;8.130;2022-11-21T01:25:14;5.90;;;2.80;;
55316;SDS011;41178;48.956;8.130;2022-11-21T01:30:15;2.20;;;2.10;;
55316;SDS011;41178;48.956;8.130;2022-11-21T01:35:17;2.90;;;2.60;;
55316;SDS011;41178;48.956;8.130;2022-11-21T01:40:19;4.63;;;2.60;;
55316;SDS011;41178;48.956;8.130;2022-11-21T01:50:57;2.20;;;1.97;;
55316;SDS011;41178;48.956;8.130;2022-11-21T01:56:06;2.73;;;2.10;;
55316;SDS011;41178;48.956;8.130;2022-11-21T02:01:08;2.87;;;2.37;;
55316;SDS011;41178;48.956;8.130;2022-11-21T02:06:10;3.23;;;2.40;;
55316;SDS011;41178;48.956;8.130;2022-11-21T02:16:17;1.93;;;1.83;;
55316;SDS011;41178;48.956;8.130;2022-11-21T02:26:30;2.33;;;2.13;;
55316;SDS011;41178;48.956;8.130;2022-11-21T02:31:32;3.87;;;1.97;;
55316;SDS011;41178;48.956;8.130;2022-11-21T02:36:38;1.97;;;1.87;;
55316;SDS011;41178;48.956;8.130;2022-11-21T02:41:42;2.27;;;2.13;;
55316;SDS011;41178;48.956;8.130;2022-11-21T02:46:52;1.80;;;1.70;;
55316;SDS011;41178;48.956;8.130;2022-11-21T02:51:53;2.40;;;2.20;;
55316;SDS011;41178;48.956;8.130;2022-11-21T02:56:55;3.07;;;1.90;;
55316;SDS011;41178;48.956;8.130;2022-11-21T03:01:57;2.47;;;2.17;;
55316;SDS011;41178;48.956;8.130;2022-11-21T03:07:01;5.13;;;2.20;;
55316;SDS011;41178;48.956;8.130;2022-11-21T03:12:06;2.40;;;2.20;;
55316;SDS011;41178;48.956;8.130;2022-11-21T03:17:09;2.03;;;1.93;;
55316;SDS011;41178;48.956;8.130;2022-11-21T03:22:11;3.73;;;2.33;;
55316;SDS011;41178;48.956;8.130;2022-11-21T03:27:13;2.83;;;2.23;;
55316;SDS011;41178;48.956;8.130;2022-11-21T03:32:15;4.43;;;2.60;;
55316;SDS011;41178;48.956;8.130;2022-11-21T03:37:16;3.73;;;2.17;;
55316;SDS011;41178;48.956;8.130;2022-11-21T03:42:18;2.63;;;2.40;;
55316;SDS011;41178;48.956;8.130;2022-11-21T03:47:20;2.90;;;2.10;;
55316;SDS011;41178;48.956;8.130;2022-11-21T03:52:21;4.00;;;2.47;;
55316;SDS011;41178;48.956;8.130;2022-11-21T03:57:23;2.47;;;2.37;;
55316;SDS011;41178;48.956;8.130;2022-11-21T04:02:24;3.30;;;2.20;;
55316;SDS011;41178;48.956;8.130;2022-11-21T04:07:26;2.47;;;2.27;;
55316;SDS011;41178;48.956;8.130;2022-11-21T04:12:30;3.57;;;2.50;;
55316;SDS011;41178;48.956;8.130;2022-11-21T04:17:31;4.70;;;2.50;;
55316;SDS011;41178;48.956;8.130;2022-11-21T04:22:33;3.57;;;2.40;;
55316;SDS011;41178;48.956;8.130;2022-11-21T04:27:35;3.97;;;2.63;;
55316;SDS011;41178;48.956;8.130;2022-11-21T04:32:36;4.13;;;2.80;;
55316;SDS011;41178;48.956;8.130;2022-11-21T04:37:38;4.77;;;2.67;;
55316;SDS011;41178;48.956;8.130;2022-11-21T04:42:40;4.87;;;2.87;;
55316;SDS011;41178;48.956;8.130;2022-11-21T04:47:45;2.90;;;2.40;;
55316;SDS011;41178;48.956;8.130;2022-11-21T04:53:11;3.67;;;2.50;;
55316;SDS011;41178;48.956;8.130;2022-11-21T04:59:02;5.43;;;3.10;;
55316;SDS011;41178;48.956;8.130;2022-11-21T05:04:53;3.57;;;2.40;;
55316;SDS011;41178;48.956;8.130;2022-11-21T05:10:45;5.07;;;2.60;;
55316;SDS011;41178;48.956;8.130;2022-11-21T05:16:36;4.70;;;2.40;;
55316;SDS011;41178;48.956;8.130;2022-11-21T05:22:27;4.57;;;2.50;;
55316;SDS011;41178;48.956;8.130;2022-11-21T05:28:17;3.07;;;2.57;;
55316;SDS011;41178;48.956;8.130;2022-11-21T05:34:08;2.93;;;2.60;;
55316;SDS011;41178;48.956;8.130;2022-11-21T05:39:59;4.50;;;2.37;;
55316;SDS011;41178;48.956;8.130;2022-11-21T05:45:50;3.43;;;2.40;;
55316;SDS011;41178;48.956;8.130;2022-11-21T05:51:41;2.53;;;2.33;;
55316;SDS011;41178;48.956;8.130;2022-11-21T05:57:32;4.77;;;2.80;;
55316;SDS011;41178;48.956;8.130;2022-11-21T06:03:22;4.20;;;2.67;;
55316;SDS011;41178;48.956;8.130;2022-11-21T06:09:14;7.07;;;3.10;;
55316;SDS011;41178;48.956;8.130;2022-11-21T06:15:05;3.40;;;3.10;;
55316;SDS011;41178;48.956;8.130;2022-11-21T06:21:00;5.50;;;3.20;;
55316;SDS011;41178;48.956;8.130;2022-11-21T06:26:51;4.63;;;2.83;;
55316;SDS011;41178;48.956;8.130;2022-11-21T06:32:42;3.50;;;3.03;;
55316;SDS011;41178;48.956;8.130;2022-11-21T06:38:33;11.80;;;3.40;;
55316;SDS011;41178;48.956;8.130;2022-11-21T06:44:24;5.33;;;3.10;;
55316;SDS011;41178;48.956;8.130;2022-11-21T06:50:15;8.67;;;3.60;;
55316;SDS011;41178;48.956;8.130;2022-11-21T06:56:06;6.10;;;3.30;;
55316;SDS011;41178;48.956;8.130;2022-11-21T07:01:57;9.13;;;3.47;;
55316;SDS011;41178;48.956;8.130;2022-11-21T07:07:48;8.73;;;3.57;;
55316;SDS011;41178;48.956;8.130;2022-11-21T07:13:41;5.87;;;3.23;;
55316;SDS011;41178;48.956;8.130;2022-11-21T07:19:32;6.43;;;3.37;;
55316;SDS011;41178;48.956;8.130;2022-11-21T07:25:23;9.13;;;3.80;;
55316;SDS011;41178;48.956;8.130;2022-11-21T07:31:14;9.50;;;4.07;;
55316;SDS011;41178;48.956;8.130;2022-11-21T07:37:06;8.20;;;3.30;;
55316;SDS011;41178;48.956;8.130;2022-11-21T07:43:01;6.17;;;3.27;;
55316;SDS011;41178;48.956;8.130;2022-11-21T07:48:53;5.63;;;3.00;;
55316;SDS011;41178;48.956;8.130;2022-11-21T07:54:45;7.40;;;3.40;;
55316;SDS011;41178;48.956;8.130;2022-11-21T08:00:37;4.87;;;3.80;;
55316;SDS011;41178;48.956;8.130;2022-11-21T08:06:29;9.77;;;3.90;;
55316;SDS011;41178;48.956;8.130;2022-11-21T08:12:20;8.53;;;3.47;;
55316;SDS011;41178;48.956;8.130;2022-11-21T08:18:12;6.03;;;3.13;;
55316;SDS011;41178;48.956;8.130;2022-11-21T08:24:04;8.43;;;4.30;;
55316;SDS011;41178;48.956;8.130;2022-11-21T08:29:55;6.77;;;3.23;;
55316;SDS011;41178;48.956;8.130;2022-11-21T08:35:46;6.83;;;3.03;;
55316;SDS011;41178;48.956;8.130;2022-11-21T08:41:37;10.40;;;4.23;;
55316;SDS011;41178;48.956;8.130;2022-11-21T08:47:31;3.90;;;2.67;;
55316;SDS011;41178;48.956;8.130;2022-11-21T08:53:23;2.37;;;2.23;;
55316;SDS011;41178;48.956;8.130;2022-11-21T08:59:15;7.77;;;4.27;;
55316;SDS011;41178;48.956;8.130;2022-11-21T09:05:05;6.53;;;3.43;;
55316;SDS011;41178;48.956;8.130;2022-11-21T09:10:57;10.17;;;3.03;;
55316;SDS011;41178;48.956;8.130;2022-11-21T09:16:47;9.30;;;4.30;;
55316;SDS011;41178;48.956;8.130;2022-11-21T09:22:38;6.93;;;3.40;;
55316;SDS011;41178;48.956;8.130;2022-11-21T09:28:29;6.87;;;3.80;;
55316;SDS011;41178;48.956;8.130;2022-11-21T09:34:20;6.90;;;3.33;;
55316;SDS011;41178;48.956;8.130;2022-11-21T09:40:13;9.90;;;4.97;;
55316;SDS011;41178;48.956;8.130;2022-11-21T09:46:12;7.63;;;4.57;;
55316;SDS011;41178;48.956;8.130;2022-11-21T09:52:05;6.13;;;3.93;;
55316;SDS011;41178;48.956;8.130;2022-11-21T09:58:01;7.07;;;3.97;;
55316;SDS011;41178;48.956;8.130;2022-11-21T10:04:01;13.23;;;6.90;;
55316;SDS011;41178;48.956;8.130;2022-11-21T10:10:01;13.77;;;7.33;;
55316;SDS011;41178;48.956;8.130;2022-11-21T10:22:33;9.13;;;4.73;;
55316;SDS011;41178;48.956;8.130;2022-11-21T10:28:40;14.43;;;5.83;;
55316;SDS011;41178;48.956;8.130;2022-11-21T10:34:39;15.20;;;7.20;;
55316;SDS011;41178;48.956;8.130;2022-11-21T10:40:32;8.90;;;4.00;;
55316;SDS011;41178;48.956;8.130;2022-11-21T10:46:27;9.87;;;3.73;;
55316;SDS011;41178;48.956;8.130;2022-11-21T10:52:18;8.13;;;4.20;;
55316;SDS011;41178;48.956;8.130;2022-11-21T10:58:27;12.17;;;4.63;;
55316;SDS011;41178;48.956;8.130;2022-11-21T19:12:18;9.63;;;6.20;;
55316;SDS011;41178;48.956;8.130;2022-11-21T19:17:20;9.07;;;6.17;;
55316;SDS011;41178;48.956;8.130;2022-11-21T19:22:22;8.77;;;5.90;;
55316;SDS011;41178;48.956;8.130;2022-11-21T19:27:23;7.13;;;5.03;;
55316;SDS011;41178;48.956;8.130;2022-11-21T19:32:25;7.93;;;4.73;;
55316;SDS011;41178;48.956;8.130;2022-11-21T19:37:27;7.17;;;4.90;;
55316;SDS011;41178;48.956;8.130;2022-11-21T19:42:28;10.53;;;5.53;;
55316;SDS011;41178;48.956;8.130;2022-11-21T19:47:31;8.47;;;4.53;;
55316;SDS011;41178;48.956;8.130;2022-11-21T19:52:36;7.20;;;4.20;;
55316;SDS011;41178;48.956;8.130;2022-11-21T19:57:37;8.63;;;6.90;;
55316;SDS011;41178;48.956;8.130;2022-11-21T20:02:39;16.37;;;11.03;;
55316;SDS011;41178;48.956;8.130;2022-11-21T20:07:41;15.17;;;10.83;;
55316;SDS011;41178;48.956;8.130;2022-11-21T20:12:42;17.93;;;11.97;;
55316;SDS011;41178;48.956;8.130;2022-11-21T20:17:51;13.50;;;8.60;;
55316;SDS011;41178;48.956;8.130;2022-11-21T20:22:52;14.77;;;7.23;;
55316;SDS011;41178;48.956;8.130;2022-11-21T20:27:54;8.83;;;6.27;;
55316;SDS011;41178;48.956;8.130;2022-11-21T20:32:56;9.33;;;6.10;;
55316;SDS011;41178;48.956;8.130;2022-11-21T20:37:57;10.80;;;5.77;;
55316;SDS011;41178;48.956;8.130;2022-11-21T20:42:59;12.73;;;7.60;;
55316;SDS011;41178;48.956;8.130;2022-11-21T20:48:01;29.57;;;21.63;;
55316;SDS011;41178;48.956;8.130;2022-11-21T20:53:10;11.27;;;7.00;;
55316;SDS011;41178;48.956;8.130;2022-11-21T21:03:36;7.47;;;5.37;;
55316;SDS011;41178;48.956;8.130;2022-11-21T21:08:39;7.13;;;5.23;;
55316;SDS011;41178;48.956;8.130;2022-11-21T21:13:40;9.67;;;5.20;;
55316;SDS011;41178;48.956;8.130;2022-11-21T21:18:47;7.53;;;5.47;;
55316;SDS011;41178;48.956;8.130;2022-11-21T21:23:53;10.83;;;6.17;;
55316;SDS011;41178;48.956;8.130;2022-11-21T21:29:05;11.73;;;6.30;;
55316;SDS011;41178;48.956;8.130;2022-11-21T21:34:08;9.30;;;6.47;;
55316;SDS011;41178;48.956;8.130;2022-11-21T21:39:10;7.90;;;5.70;;
55316;SDS011;41178;48.956;8.130;2022-11-21T21:44:11;9.63;;;6.47;;
55316;SDS011;41178;48.956;8.130;2022-11-21T21:49:13;11.13;;;5.57;;
55316;SDS011;41178;48.956;8.130;2022-11-21T21:54:15;9.43;;;7.00;;
55316;SDS011;41178;48.956;8.130;2022-11-21T21:59:18;11.10;;;6.53;;
55316;SDS011;41178;48.956;8.130;2022-11-21T22:04:20;13.87;;;6.03;;
55316;SDS011;41178;48.956;8.130;2022-11-21T22:09:22;12.67;;;7.03;;
55316;SDS011;41178;48.956;8.130;2022-11-21T22:14:24;11.43;;;7.50;;
55316;SDS011;41178;48.956;8.130;2022-11-21T22:19:25;11.47;;;6.77;;
55316;SDS011;41178;48.956;8.130;2022-11-21T22:24:28;12.10;;;6.17;;
55316;SDS011;41178;48.956;8.130;2022-11-21T22:29:30;10.23;;;6.10;;
55316;SDS011;41178;48.956;8.130;2022-11-21T22:34:31;7.47;;;6.17;;
55316;SDS011;41178;48.956;8.130;2022-11-21T22:39:33;15.17;;;6.53;;
55316;SDS011;41178;48.956;8.130;2022-11-21T22:44:35;8.63;;;5.93;;
55316;SDS011;41178;48.956;8.130;2022-11-21T22:49:36;9.47;;;6.90;;
55316;SDS011;41178;48.956;8.130;2022-11-21T22:54:38;9.93;;;6.30;;
55316;SDS011;41178;48.956;8.130;2022-11-21T22:59:40;12.87;;;7.00;;
55316;SDS011;41178;48.956;8.130;2022-11-21T23:04:41;10.07;;;5.93;;
55316;SDS011;41178;48.956;8.130;2022-11-21T23:09:43;9.07;;;6.67;;
55316;SDS011;41178;48.956;8.130;2022-11-21T23:14:45;11.37;;;6.13;;
55316;SDS011;41178;48.956;8.130;2022-11-21T23:19:47;8.10;;;5.73;;
55316;SDS011;41178;48.956;8.130;2022-11-21T23:24:48;7.60;;;4.90;;
55316;SDS011;41178;48.956;8.130;2022-11-21T23:29:50;7.63;;;4.43;;
55316;SDS011;41178;48.956;8.130;2022-11-21T23:34:52;6.00;;;4.00;;
55316;SDS011;41178;48.956;8.130;2022-11-21T23:39:53;7.10;;;3.83;;
55316;SDS011;41178;48.956;8.130;2022-11-21T23:44:55;4.20;;;3.37;;
55316;SDS011;41178;48.956;8.130;2022-11-21T23:49:57;6.57;;;3.83;;
55316;SDS011;41178;48.956;8.130;2022-11-21T23:54:58;5.77;;;3.60;;
